Time;durP1;ratioP1;P1;durP2;ratioP2;P2;SDS_P1;SDS_P2;PMS_P1;PMS_P2;Temp;Humidity;BMP_temperature;BMP_pressure;BME280_temperature;BME280_humidity;BME280_pressure;Samples;Min_cycle;Max_cycle;Signal;HPM_P1;HPM_P2
2022/10/30 00:00:28;;;;;;;21.50;7.82;;;14.30;99.90;;;;;;5072542;28;20067;-71
2022/10/30 00:02:54;;;;;;;22.30;8.68;;;14.20;99.90;;;;;;5055181;28;20041;-71
2022/10/30 00:05:20;;;;;;;21.27;8.75;;;14.20;99.90;;;;;;5072570;28;20048;-71
2022/10/30 00:07:47;;;;;;;19.95;7.90;;;14.20;99.90;;;;;;5072388;28;20051;-71
2022/10/30 00:10:13;;;;;;;20.98;8.23;;;14.20;99.90;;;;;;5071197;28;20036;-71
2022/10/30 00:12:39;;;;;;;29.63;8.20;;;14.20;99.90;;;;;;5055248;28;20044;-72
2022/10/30 00:15:05;;;;;;;27.00;8.50;;;14.20;99.90;;;;;;5072759;28;20047;-71
2022/10/30 00:17:31;;;;;;;21.10;7.78;;;14.20;99.90;;;;;;5072351;28;20048;-71
2022/10/30 00:19:57;;;;;;;21.17;7.93;;;14.10;99.90;;;;;;5071806;28;20040;-71
2022/10/30 00:22:23;;;;;;;20.67;8.48;;;14.10;99.90;;;;;;5054216;28;20054;-71
2022/10/30 00:24:49;;;;;;;20.15;7.82;;;14.10;99.90;;;;;;5072366;28;20052;-71
2022/10/30 00:27:15;;;;;;;22.00;7.95;;;14.10;99.90;;;;;;5072576;28;20381;-71
2022/10/30 00:29:41;;;;;;;22.27;8.55;;;14.10;99.90;;;;;;5071551;28;20052;-71
2022/10/30 00:32:06;;;;;;;17.92;7.90;;;14.00;99.90;;;;;;5072251;28;20075;-70
2022/10/30 00:34:32;;;;;;;20.52;8.57;;;14.10;99.90;;;;;;5071098;28;20041;-70
2022/10/30 00:36:58;;;;;;;26.95;8.20;;;14.00;99.90;;;;;;5070870;28;20143;-71
2022/10/30 00:39:24;;;;;;;22.30;8.02;;;13.90;99.90;;;;;;5072394;28;20064;-70
2022/10/30 00:41:50;;;;;;;22.60;8.15;;;13.90;99.90;;;;;;5072153;28;20055;-70
2022/10/30 00:44:37;;;;;;;22.48;7.93;;;13.90;99.90;;;;;;5070325;28;20052;-71
2022/10/30 00:47:23;;;;;;;20.35;7.82;;;13.90;99.90;;;;;;5071478;28;20044;-70
2022/10/30 00:50:02;;;;;;;21.67;8.23;;;13.90;99.90;;;;;;5072428;28;20045;-75
2022/10/30 00:52:34;;;;;;;25.15;7.93;;;13.90;99.90;;;;;;5071829;28;20773;-71
2022/10/30 00:55:12;;;;;;;23.23;8.75;;;13.90;99.90;;;;;;5075118;28;20068;-71
2022/10/30 00:57:40;;;;;;;24.60;8.98;;;13.90;99.90;;;;;;5076075;28;20093;-71
2022/10/30 01:00:06;;;;;;;25.23;8.15;;;13.90;99.90;;;;;;5057656;28;20048;-72
2022/10/30 01:02:33;;;;;;;19.00;8.25;;;13.90;99.90;;;;;;5074650;28;20093;-71
2022/10/30 01:04:59;;;;;;;24.57;9.17;;;13.80;99.90;;;;;;5075598;28;20051;-70
2022/10/30 01:07:25;;;;;;;24.08;8.52;;;13.80;99.90;;;;;;5074741;28;20283;-70
2022/10/30 01:09:51;;;;;;;19.08;7.72;;;13.80;99.90;;;;;;5074187;28;20401;-74
2022/10/30 01:12:17;;;;;;;18.35;8.30;;;13.80;99.90;;;;;;5075742;28;20052;-71
2022/10/30 01:14:48;;;;;;;22.92;9.27;;;13.80;99.90;;;;;;5075383;28;20501;-70
2022/10/30 01:17:23;;;;;;;25.58;8.88;;;13.80;99.90;;;;;;5074810;28;20072;-71
2022/10/30 01:20:12;;;;;;;19.27;8.07;;;13.80;99.90;;;;;;5075621;28;20059;-72
2022/10/30 01:22:59;;;;;;;29.38;8.88;;;13.80;99.90;;;;;;5075740;28;20102;-70
2022/10/30 01:25:31;;;;;;;23.40;9.13;;;13.80;99.90;;;;;;5075529;28;20385;-71
2022/10/30 01:28:24;;;;;;;20.35;8.50;;;13.80;99.90;;;;;;5075044;28;20052;-70
2022/10/30 01:31:30;;;;;;;23.40;8.85;;;13.70;99.90;;;;;;5057574;28;20088;-74
2022/10/30 01:34:23;;;;;;;26.67;9.90;;;13.70;99.90;;;;;;5071159;28;20092;-71
2022/10/30 01:37:17;;;;;;;22.42;9.45;;;13.60;99.90;;;;;;5074920;28;20097;-71
2022/10/30 01:39:42;;;;;;;20.45;8.80;;;13.60;99.90;;;;;;5073755;28;20048;-71
2022/10/30 01:42:43;;;;;;;26.70;9.57;;;13.50;99.90;;;;;;5075412;28;20223;-71
2022/10/30 01:45:34;;;;;;;24.20;9.90;;;13.50;99.90;;;;;;5075208;28;20404;-70
2022/10/30 01:48:12;;;;;;;17.30;8.93;;;13.50;99.90;;;;;;5036282;28;20053;-71
2022/10/30 01:51:34;;;;;;;26.00;9.38;;;13.40;99.90;;;;;;5074137;28;20065;-71
2022/10/30 01:54:03;;;;;;;19.88;9.48;;;13.40;99.90;;;;;;5012341;28;20046;-71
2022/10/30 01:57:02;;;;;;;24.95;9.10;;;13.30;99.90;;;;;;5062310;28;20053;-70
2022/10/30 01:59:31;;;;;;;25.35;9.63;;;13.30;99.90;;;;;;5073040;28;20477;-71
2022/10/30 02:01:57;;;;;;;21.92;9.00;;;13.30;99.90;;;;;;5072929;28;20041;-74
2022/10/30 02:04:23;;;;;;;29.63;9.90;;;13.20;99.90;;;;;;5074939;28;20357;-70
2022/10/30 02:06:50;;;;;;;25.25;9.68;;;13.20;99.90;;;;;;5073482;28;20080;-71
2022/10/30 02:09:16;;;;;;;24.48;9.68;;;13.10;99.90;;;;;;5073937;28;20115;-71
2022/10/30 02:11:45;;;;;;;27.23;10.35;;;13.00;99.90;;;;;;5073891;28;20052;-71
2022/10/30 02:14:14;;;;;;;22.90;9.20;;;13.00;99.90;;;;;;5074153;28;20445;-71
2022/10/30 02:16:47;;;;;;;21.75;10.05;;;13.10;99.90;;;;;;5074723;28;20361;-72
2022/10/30 02:19:12;;;;;;;23.13;9.02;;;13.00;99.90;;;;;;5073810;28;20408;-72
2022/10/30 02:21:38;;;;;;;21.70;8.77;;;13.00;99.90;;;;;;5073033;28;20052;-72
2022/10/30 02:24:04;;;;;;;23.77;9.45;;;13.00;99.90;;;;;;5073996;28;20055;-71
2022/10/30 02:26:30;;;;;;;24.55;9.15;;;13.00;99.90;;;;;;5074610;28;20056;-70
2022/10/30 02:28:56;;;;;;;21.88;9.38;;;13.10;99.90;;;;;;5072703;28;20040;-70
2022/10/30 02:31:21;;;;;;;19.80;8.48;;;13.00;99.90;;;;;;5073926;28;20122;-71
2022/10/30 02:33:48;;;;;;;25.45;9.38;;;13.00;99.90;;;;;;5055777;28;20140;-70
2022/10/30 02:36:16;;;;;;;22.70;8.00;;;13.00;99.90;;;;;;5072456;28;20044;-70
2022/10/30 02:38:43;;;;;;;24.83;8.57;;;13.00;99.90;;;;;;5073759;28;20052;-71
2022/10/30 02:41:10;;;;;;;20.15;9.02;;;13.00;99.90;;;;;;5072645;28;20106;-71
2022/10/30 02:43:36;;;;;;;22.83;8.25;;;13.10;99.90;;;;;;5073360;28;20127;-71
2022/10/30 02:46:02;;;;;;;20.17;8.02;;;13.00;99.90;;;;;;5055610;28;20086;-75
2022/10/30 02:48:29;;;;;;;23.10;8.77;;;12.90;99.90;;;;;;5074039;28;20131;-71
2022/10/30 02:51:00;;;;;;;21.13;8.25;;;12.90;99.90;;;;;;5073498;28;20055;-71
2022/10/30 02:53:25;;;;;;;24.98;8.77;;;12.80;99.90;;;;;;5056182;28;20463;-71
2022/10/30 02:55:51;;;;;;;23.20;8.40;;;12.80;99.90;;;;;;5055529;28;20091;-71
2022/10/30 02:58:17;;;;;;;19.33;9.02;;;12.70;99.90;;;;;;5056121;28;20084;-71
2022/10/30 03:00:42;;;;;;;24.02;9.10;;;12.70;99.90;;;;;;5073271;28;20044;-71
2022/10/30 03:03:08;;;;;;;20.30;8.77;;;12.60;99.90;;;;;;5073770;28;20123;-71
2022/10/30 03:05:34;;;;;;;23.38;9.20;;;12.60;99.90;;;;;;5071978;28;20492;-72
2022/10/30 03:08:00;;;;;;;25.65;8.85;;;12.60;99.90;;;;;;5073040;28;20133;-71
2022/10/30 03:10:25;;;;;;;17.35;9.07;;;12.60;99.90;;;;;;5073729;28;20043;-71
2022/10/30 03:12:51;;;;;;;23.42;10.05;;;12.60;99.90;;;;;;5072199;28;20598;-71
2022/10/30 03:15:17;;;;;;;22.35;8.93;;;12.60;99.90;;;;;;5055961;28;20132;-71
2022/10/30 03:17:42;;;;;;;25.77;9.02;;;12.50;99.90;;;;;;5039114;28;20048;-71
2022/10/30 03:20:09;;;;;;;22.23;8.75;;;12.50;99.90;;;;;;5071769;28;20472;-75
2022/10/30 03:22:34;;;;;;;22.27;9.02;;;12.50;99.90;;;;;;5072891;28;20055;-71
2022/10/30 03:25:00;;;;;;;23.73;8.90;;;12.50;99.90;;;;;;5072008;28;20045;-71
2022/10/30 03:27:26;;;;;;;21.70;9.00;;;12.50;99.90;;;;;;5071752;28;20093;-71
2022/10/30 03:29:52;;;;;;;22.15;9.18;;;12.50;99.90;;;;;;5073116;28;20056;-71
2022/10/30 03:32:17;;;;;;;24.17;9.50;;;12.40;99.90;;;;;;5072447;28;20048;-72
2022/10/30 03:34:43;;;;;;;21.92;8.75;;;12.40;99.90;;;;;;5072823;28;20040;-71
2022/10/30 03:37:09;;;;;;;22.88;9.48;;;12.40;99.90;;;;;;5072128;28;20070;-74
2022/10/30 03:39:34;;;;;;;21.40;8.80;;;12.30;99.90;;;;;;5073096;28;20083;-71
2022/10/30 03:42:00;;;;;;;22.40;9.23;;;12.30;99.90;;;;;;5072042;28;20127;-70
2022/10/30 03:44:26;;;;;;;21.67;8.93;;;12.30;99.90;;;;;;5054762;28;20195;-71
2022/10/30 03:46:51;;;;;;;22.58;9.43;;;12.30;99.90;;;;;;5073175;28;20036;-70
2022/10/30 03:49:17;;;;;;;20.23;9.20;;;12.30;99.90;;;;;;5072794;28;20389;-69
2022/10/30 03:51:43;;;;;;;25.63;9.40;;;12.20;99.90;;;;;;5072649;28;20041;-70
2022/10/30 03:54:08;;;;;;;22.95;9.95;;;12.20;99.90;;;;;;5054835;28;20040;-70
2022/10/30 03:56:34;;;;;;;22.48;9.57;;;12.20;99.90;;;;;;5071063;28;20045;-71
2022/10/30 03:59:00;;;;;;;23.17;9.20;;;12.20;99.90;;;;;;5072269;28;20055;-71
2022/10/30 04:01:25;;;;;;;24.58;9.35;;;12.20;99.90;;;;;;5054249;28;20048;-71
2022/10/30 04:03:51;;;;;;;24.15;9.48;;;12.10;99.90;;;;;;5072315;28;20049;-70
2022/10/30 04:06:17;;;;;;;21.45;8.90;;;12.10;99.90;;;;;;5072302;28;20048;-70
2022/10/30 04:08:43;;;;;;;27.85;10.73;;;12.00;99.90;;;;;;5071974;28;20051;-70
2022/10/30 04:11:10;;;;;;;24.98;9.60;;;12.00;99.90;;;;;;5071349;28;20506;-72
2022/10/30 04:13:36;;;;;;;;;;;12.00;99.90;;;;;;5072004;28;20097;-70
2022/10/30 04:16:02;;;;;;;20.97;9.20;;;11.90;99.90;;;;;;5070725;28;19944;-71
2022/10/30 04:18:28;;;;;;;22.15;9.18;;;11.90;99.90;;;;;;5071242;28;20048;-71
2022/10/30 04:20:54;;;;;;;26.48;9.25;;;11.80;99.90;;;;;;5071390;28;20106;-71
2022/10/30 04:23:21;;;;;;;22.08;9.13;;;11.80;99.90;;;;;;5072234;28;20044;-70
2022/10/30 04:25:47;;;;;;;25.45;8.60;;;11.70;99.90;;;;;;5070560;28;20097;-70
2022/10/30 04:28:13;;;;;;;27.15;9.68;;;11.70;99.90;;;;;;5071921;28;20048;-70
2022/10/30 04:30:39;;;;;;;21.13;10.30;;;11.70;99.90;;;;;;5076612;28;20354;-71
2022/10/30 04:33:08;;;;;;;24.40;9.45;;;11.70;99.90;;;;;;5057647;28;20316;-70
2022/10/30 04:35:36;;;;;;;23.23;9.57;;;11.70;99.90;;;;;;5076722;28;20048;-70
2022/10/30 04:38:05;;;;;;;24.47;9.33;;;11.70;99.90;;;;;;5075772;28;20096;-70
2022/10/30 04:40:34;;;;;;;24.85;9.40;;;11.70;99.90;;;;;;5074571;28;20335;-71
2022/10/30 04:43:01;;;;;;;23.52;9.50;;;11.70;99.90;;;;;;5074570;28;20043;-71
2022/10/30 04:45:27;;;;;;;28.33;10.57;;;11.70;99.90;;;;;;5075497;28;20210;-71
2022/10/30 04:48:02;;;;;;;26.00;9.90;;;11.70;99.90;;;;;;5075667;28;20134;-73
2022/10/30 04:50:29;;;;;;;24.70;10.52;;;11.60;99.90;;;;;;5076362;28;20048;-70
2022/10/30 04:53:09;;;;;;;25.27;10.68;;;11.70;99.90;;;;;;5074579;28;20052;-70
2022/10/30 04:55:35;;;;;;;30.98;10.07;;;11.70;99.90;;;;;;5074429;28;20048;-70
2022/10/30 04:58:04;;;;;;;25.50;10.32;;;11.70;99.90;;;;;;5075530;28;20044;-70
2022/10/30 05:00:30;;;;;;;23.50;10.07;;;11.70;99.90;;;;;;5058355;28;20445;-70
2022/10/30 05:03:00;;;;;;;28.48;11.32;;;11.70;99.90;;;;;;5074247;28;20051;-70
2022/10/30 05:05:27;;;;;;;29.15;10.50;;;11.70;99.90;;;;;;5074953;28;20136;-71
2022/10/30 05:07:53;;;;;;;29.88;11.05;;;11.70;99.90;;;;;;5075493;28;20127;-71
2022/10/30 05:10:18;;;;;;;26.23;11.18;;;11.60;99.90;;;;;;5074019;28;20131;-70
2022/10/30 05:12:44;;;;;;;29.83;11.00;;;11.70;99.90;;;;;;5075337;28;20048;-71
2022/10/30 05:15:11;;;;;;;27.55;11.02;;;11.70;99.90;;;;;;5074140;28;20040;-70
2022/10/30 05:17:37;;;;;;;24.30;10.02;;;11.60;99.90;;;;;;5073735;28;20040;-71
2022/10/30 05:20:04;;;;;;;24.98;10.68;;;11.60;99.90;;;;;;5075129;28;20040;-71
2022/10/30 05:22:36;;;;;;;26.00;10.80;;;11.60;99.90;;;;;;5073925;28;20511;-70
2022/10/30 05:25:02;;;;;;;26.35;10.38;;;11.60;99.90;;;;;;5073680;28;20048;-72
2022/10/30 05:27:27;;;;;;;27.15;9.98;;;11.60;99.90;;;;;;5073673;28;20051;-70
2022/10/30 05:29:53;;;;;;;24.60;10.40;;;11.60;99.90;;;;;;5073702;28;20068;-71
2022/10/30 05:32:19;;;;;;;25.60;10.27;;;11.60;99.90;;;;;;5024256;28;20052;-72
2022/10/30 05:34:44;;;;;;;25.35;11.05;;;11.60;99.90;;;;;;5073504;28;20052;-72
2022/10/30 05:37:10;;;;;;;24.08;10.70;;;11.60;99.90;;;;;;5056569;28;20041;-72
2022/10/30 05:39:36;;;;;;;26.40;10.82;;;11.60;99.90;;;;;;5074241;28;20044;-72
2022/10/30 05:42:02;;;;;;;25.40;10.32;;;11.60;99.90;;;;;;5074033;28;20044;-72
2022/10/30 05:44:27;;;;;;;26.98;10.55;;;11.60;99.90;;;;;;5074747;28;20127;-75
2022/10/30 05:46:53;;;;;;;30.67;11.60;;;11.60;99.90;;;;;;5073251;28;20187;-72
2022/10/30 05:49:19;;;;;;;27.13;11.13;;;11.60;99.90;;;;;;5073460;28;20370;-70
2022/10/30 05:51:44;;;;;;;27.45;11.27;;;11.60;99.90;;;;;;5073555;28;20044;-70
2022/10/30 05:54:10;;;;;;;29.33;10.30;;;11.60;99.90;;;;;;5056571;28;20044;-71
2022/10/30 05:56:36;;;;;;;27.65;10.50;;;11.50;99.90;;;;;;5073598;28;20044;-71
2022/10/30 05:59:02;;;;;;;25.38;10.85;;;11.50;99.90;;;;;;5074422;28;20044;-70
2022/10/30 06:01:27;;;;;;;28.88;10.95;;;11.50;99.90;;;;;;5073921;28;20052;-70
2022/10/30 06:03:53;;;;;;;26.77;10.95;;;11.60;99.90;;;;;;5074320;28;20045;-70
2022/10/30 06:06:19;;;;;;;27.40;11.18;;;11.60;99.90;;;;;;5074246;28;20040;-71
2022/10/30 06:08:44;;;;;;;27.38;11.82;;;11.60;99.90;;;;;;5056284;28;20060;-71
2022/10/30 06:11:10;;;;;;;36.80;11.88;;;11.60;99.90;;;;;;5073928;28;20039;-71
2022/10/30 06:13:36;;;;;;;27.13;11.65;;;11.60;99.90;;;;;;5073611;28;20431;-72
2022/10/30 06:16:01;;;;;;;30.33;12.07;;;11.60;99.90;;;;;;5074649;28;20048;-72
2022/10/30 06:18:27;;;;;;;27.00;11.95;;;11.60;99.90;;;;;;5056335;28;20062;-72
2022/10/30 06:20:56;;;;;;;29.23;12.32;;;11.60;99.90;;;;;;5073182;28;20036;-72
2022/10/30 06:23:21;;;;;;;29.73;11.75;;;11.50;99.90;;;;;;5073134;28;20055;-71
2022/10/30 06:25:47;;;;;;;28.52;11.93;;;11.60;99.90;;;;;;5072514;28;20045;-74
2022/10/30 06:28:13;;;;;;;31.98;11.77;;;11.70;99.90;;;;;;5073013;28;20044;-71
2022/10/30 06:30:39;;;;;;;29.60;11.48;;;11.60;99.90;;;;;;5073802;28;20041;-72
2022/10/30 06:33:06;;;;;;;27.40;11.77;;;11.60;99.90;;;;;;5072088;28;20412;-71
2022/10/30 06:35:32;;;;;;;29.85;12.52;;;11.50;99.90;;;;;;5056072;28;20055;-71
2022/10/30 06:38:00;;;;;;;28.58;12.73;;;11.50;99.90;;;;;;5073526;28;20074;-72
2022/10/30 06:40:28;;;;;;;28.52;11.63;;;11.50;99.90;;;;;;5072393;28;20052;-71
2022/10/30 06:42:54;;;;;;;30.35;11.80;;;11.50;99.90;;;;;;5074223;28;20041;-71
2022/10/30 06:45:21;;;;;;;33.42;11.98;;;11.50;99.90;;;;;;5073188;28;20041;-72
2022/10/30 06:47:47;;;;;;;28.67;12.07;;;11.50;99.90;;;;;;5072107;28;20048;-71
2022/10/30 06:50:19;;;;;;;30.27;12.27;;;11.60;99.90;;;;;;5072208;28;20048;-72
2022/10/30 06:52:44;;;;;;;28.33;11.57;;;11.50;99.90;;;;;;5071974;28;20294;-71
2022/10/30 06:55:10;;;;;;;29.77;12.02;;;11.60;99.90;;;;;;5055763;28;20063;-72
2022/10/30 06:57:37;;;;;;;26.30;12.00;;;11.60;99.90;;;;;;5056341;28;20391;-72
2022/10/30 07:00:04;;;;;;;27.88;11.27;;;11.60;99.90;;;;;;5072043;28;20048;-72
2022/10/30 07:02:30;;;;;;;28.10;11.00;;;11.60;99.90;;;;;;5071966;28;20144;-72
2022/10/30 07:04:56;;;;;;;27.38;11.45;;;11.70;99.90;;;;;;5073145;28;20088;-72
2022/10/30 07:07:21;;;;;;;25.80;11.77;;;11.70;99.90;;;;;;5056195;28;20111;-72
2022/10/30 07:09:47;;;;;;;27.95;11.73;;;11.70;99.90;;;;;;5055853;28;20123;-71
2022/10/30 07:12:13;;;;;;;28.67;11.43;;;11.80;99.90;;;;;;5071920;28;20048;-72
2022/10/30 07:14:39;;;;;;;32.90;11.57;;;11.80;99.90;;;;;;5056077;28;20045;-73
2022/10/30 07:17:05;;;;;;;31.52;11.73;;;11.90;99.90;;;;;;5072068;28;20063;-71
2022/10/30 07:19:30;;;;;;;28.75;12.75;;;11.90;99.90;;;;;;5039154;28;20041;-71
2022/10/30 07:21:56;;;;;;;28.23;12.23;;;12.00;99.90;;;;;;5072825;28;20135;-71
2022/10/30 07:24:22;;;;;;;33.22;12.55;;;12.00;99.90;;;;;;5071658;28;20128;-71
2022/10/30 07:26:48;;;;;;;30.50;11.88;;;12.00;99.90;;;;;;5072784;28;20074;-72
2022/10/30 07:29:13;;;;;;;29.25;12.73;;;12.00;99.90;;;;;;5072712;28;20048;-71
2022/10/30 07:31:39;;;;;;;37.47;12.85;;;12.10;99.90;;;;;;5054801;28;20133;-72
2022/10/30 07:34:05;;;;;;;29.33;11.95;;;12.10;99.90;;;;;;5071239;28;20049;-72
2022/10/30 07:36:30;;;;;;;30.13;12.02;;;12.20;99.90;;;;;;5072846;28;20130;-72
2022/10/30 07:38:56;;;;;;;27.70;11.95;;;12.30;99.90;;;;;;5072690;28;20036;-72
2022/10/30 07:41:22;;;;;;;28.58;12.60;;;12.30;99.90;;;;;;5055028;28;20445;-72
2022/10/30 07:43:47;;;;;;;27.88;12.65;;;12.40;99.90;;;;;;5072843;28;20053;-72
2022/10/30 07:46:13;;;;;;;26.67;11.73;;;12.50;99.90;;;;;;5071434;28;20041;-72
2022/10/30 07:48:39;;;;;;;27.25;12.80;;;12.60;99.90;;;;;;5071436;28;20051;-72
2022/10/30 07:51:05;;;;;;;34.33;12.85;;;12.60;99.90;;;;;;5055377;28;20052;-72
2022/10/30 07:53:31;;;;;;;32.28;12.77;;;12.70;99.90;;;;;;5072492;28;20048;-72
2022/10/30 07:55:57;;;;;;;30.67;13.13;;;12.70;99.90;;;;;;5038515;28;20450;-72
2022/10/30 07:58:23;;;;;;;30.48;12.68;;;12.80;99.90;;;;;;5072406;28;20048;-72
2022/10/30 08:00:49;;;;;;;28.52;12.85;;;12.90;99.90;;;;;;5072720;28;20047;-71
2022/10/30 08:03:15;;;;;;;28.15;12.73;;;12.90;99.90;;;;;;5071534;28;20369;-71
2022/10/30 08:05:41;;;;;;;31.60;12.23;;;12.90;99.90;;;;;;5075651;28;20063;-72
2022/10/30 08:08:07;;;;;;;29.20;12.65;;;13.00;99.90;;;;;;5075554;28;20041;-72
2022/10/30 08:10:34;;;;;;;32.83;13.25;;;13.10;99.90;;;;;;5075462;28;20510;-71
2022/10/30 08:13:00;;;;;;;29.50;12.30;;;13.20;99.90;;;;;;5075521;28;20051;-72
2022/10/30 08:15:25;;;;;;;29.55;13.00;;;13.20;99.90;;;;;;5076477;28;20052;-71
2022/10/30 08:17:52;;;;;;;27.30;12.75;;;13.20;99.90;;;;;;5077255;28;20480;-72
2022/10/30 08:20:20;;;;;;;29.60;12.52;;;13.30;99.90;;;;;;5075570;28;20149;-72
2022/10/30 08:22:53;;;;;;;27.38;12.60;;;13.40;99.90;;;;;;5075330;28;20091;-72
2022/10/30 08:25:21;;;;;;;28.70;12.68;;;13.50;99.90;;;;;;5076614;28;20193;-70
2022/10/30 08:27:57;;;;;;;27.75;12.57;;;13.50;99.90;;;;;;5075113;28;20072;-71
2022/10/30 08:30:25;;;;;;;31.60;12.40;;;13.60;99.90;;;;;;5077113;28;20103;-71
2022/10/30 08:32:50;;;;;;;28.48;12.90;;;13.70;99.90;;;;;;5076090;28;20075;-72
2022/10/30 08:35:16;;;;;;;33.80;13.05;;;13.80;99.90;;;;;;5058789;28;20052;-73
2022/10/30 08:37:42;;;;;;;30.38;13.30;;;13.80;99.90;;;;;;5076642;28;20492;-73
2022/10/30 08:40:09;;;;;;;26.50;12.50;;;13.90;99.90;;;;;;5075680;28;20067;-71
2022/10/30 08:42:35;;;;;;;;;;;14.00;99.90;;;;;;5076634;28;20052;-72
2022/10/30 08:45:01;;;;;;;29.52;12.75;;;14.00;99.90;;;;;;5075746;28;19928;-72
2022/10/30 08:47:27;;;;;;;30.95;12.88;;;14.10;99.90;;;;;;5076941;28;20429;-72
2022/10/30 08:49:53;;;;;;;31.67;11.90;;;14.20;99.90;;;;;;5075212;28;20044;-76
2022/10/30 08:52:19;;;;;;;31.73;13.30;;;14.20;99.90;;;;;;5075917;28;20399;-72
2022/10/30 08:54:44;;;;;;;29.58;12.75;;;14.30;99.90;;;;;;5075717;28;20041;-72
2022/10/30 08:57:10;;;;;;;32.45;12.48;;;14.30;99.90;;;;;;5077281;28;20051;-71
2022/10/30 08:59:36;;;;;;;39.08;13.02;;;14.40;99.90;;;;;;5077774;28;20057;-71
2022/10/30 09:02:01;;;;;;;32.05;12.50;;;14.40;99.90;;;;;;5077414;28;20139;-70
2022/10/30 09:04:27;;;;;;;29.98;13.32;;;14.50;99.90;;;;;;5076776;28;20049;-71
2022/10/30 09:06:53;;;;;;;31.02;13.00;;;14.60;99.90;;;;;;5077157;28;20049;-70
2022/10/30 09:09:18;;;;;;;25.92;13.48;;;14.60;99.90;;;;;;5045794;28;20048;-72
2022/10/30 09:11:47;;;;;;;28.30;13.13;;;14.70;99.90;;;;;;5079521;28;20055;-73
2022/10/30 09:14:13;;;;;;;32.13;13.32;;;14.70;99.90;;;;;;5078843;28;20045;-72
2022/10/30 09:16:39;;;;;;;29.38;13.50;;;14.90;99.90;;;;;;5063249;28;20400;-72
2022/10/30 09:19:05;;;;;;;33.70;14.07;;;15.00;99.90;;;;;;5082097;28;20076;-72
2022/10/30 09:21:30;;;;;;;36.00;13.07;;;15.00;99.90;;;;;;5063688;28;20079;-72
2022/10/30 09:23:56;;;;;;;27.65;12.73;;;15.10;99.90;;;;;;5080976;28;20079;-72
2022/10/30 09:26:22;;;;;;;36.33;13.48;;;15.20;99.90;;;;;;5079874;28;20525;-72
2022/10/30 09:28:48;;;;;;;30.63;13.15;;;15.30;99.90;;;;;;5079899;28;20041;-72
2022/10/30 09:31:14;;;;;;;27.13;13.32;;;15.40;99.90;;;;;;5082107;28;20044;-71
2022/10/30 09:33:39;;;;;;;28.80;13.50;;;15.40;99.90;;;;;;5064975;28;20060;-71
2022/10/30 09:36:06;;;;;;;27.75;13.32;;;15.40;99.90;;;;;;5082074;28;20408;-72
2022/10/30 09:38:31;;;;;;;32.10;13.60;;;15.50;99.90;;;;;;5065808;28;20087;-72
2022/10/30 09:41:22;;;;;;;32.30;13.40;;;15.50;99.90;;;;;;5048917;28;20377;-71
2022/10/30 09:43:54;;;;;;;31.75;14.13;;;15.60;99.90;;;;;;5080329;28;20099;-72
2022/10/30 09:46:30;;;;;;;32.17;14.30;;;15.60;99.90;;;;;;5082578;28;20132;-72
2022/10/30 09:49:06;;;;;;;27.83;13.90;;;15.70;99.90;;;;;;5080254;28;20044;-72
2022/10/30 09:52:09;;;;;;;33.85;13.90;;;15.80;99.90;;;;;;5081192;28;20098;-72
2022/10/30 09:55:09;;;;;;;33.58;14.85;;;15.70;99.90;;;;;;5079155;28;20082;-71
2022/10/30 09:57:49;;;;;;;27.23;13.38;;;15.90;99.90;;;;;;5077808;28;20083;-73
2022/10/30 10:00:21;;;;;;;29.42;13.43;;;15.90;99.90;;;;;;5059437;28;20109;-71
2022/10/30 10:03:03;;;;;;;31.90;14.35;;;16.00;99.90;;;;;;5075288;28;20052;-72
2022/10/30 10:05:41;;;;;;;30.52;13.77;;;16.20;99.90;;;;;;5077036;28;20063;-71
2022/10/30 10:08:14;;;;;;;30.63;14.30;;;16.10;99.90;;;;;;5078483;28;20052;-72
2022/10/30 10:10:43;;;;;;;33.17;13.32;;;16.20;99.90;;;;;;5079207;28;20142;-70
2022/10/30 10:13:34;;;;;;;31.30;13.55;;;16.30;99.90;;;;;;5062151;28;20435;-72
2022/10/30 10:16:06;;;;;;;28.88;13.45;;;16.40;99.90;;;;;;5080503;28;20158;-73
2022/10/30 10:18:46;;;;;;;27.15;13.13;;;16.50;99.90;;;;;;5079727;28;20469;-73
2022/10/30 10:21:24;;;;;;;25.20;12.63;;;16.60;99.90;;;;;;5079595;28;20062;-72
2022/10/30 10:24:02;;;;;;;24.73;13.48;;;16.70;99.90;;;;;;5079410;28;20044;-71
2022/10/30 10:26:49;;;;;;;29.92;13.10;;;16.80;99.90;;;;;;5079003;28;20044;-72
2022/10/30 10:29:28;;;;;;;29.42;13.90;;;16.90;99.90;;;;;;5080712;28;20083;-72
2022/10/30 10:32:29;;;;;;;24.02;12.10;;;17.00;99.90;;;;;;5077284;28;20062;-72
2022/10/30 10:35:23;;;;;;;30.60;13.10;;;17.10;99.90;;;;;;5038445;28;20115;-71
2022/10/30 10:38:03;;;;;;;24.13;12.48;;;17.10;99.90;;;;;;5035127;28;20103;-71
2022/10/30 10:40:41;;;;;;;33.60;13.00;;;17.20;99.90;;;;;;5034945;28;20056;-72
2022/10/30 10:43:46;;;;;;;27.23;13.00;;;17.30;99.90;;;;;;5036278;28;20111;-72
2022/10/30 10:46:15;;;;;;;31.80;13.17;;;17.30;99.90;;;;;;4992670;28;20425;-73
2022/10/30 10:48:43;;;;;;;31.65;13.50;;;17.40;99.90;;;;;;5035460;28;20069;-72
2022/10/30 10:51:22;;;;;;;27.98;13.63;;;17.50;99.90;;;;;;5035688;28;20080;-71
2022/10/30 10:53:56;;;;;;;36.42;15.00;;;17.50;99.90;;;;;;5034820;28;20450;-72
2022/10/30 10:56:30;;;;;;;28.98;13.68;;;17.60;99.90;;;;;;5035339;28;20049;-71
2022/10/30 10:59:00;;;;;;;29.48;12.32;;;17.60;99.90;;;;;;5034245;28;20113;-73
2022/10/30 11:01:38;;;;;;;29.23;12.15;;;17.70;99.90;;;;;;5034068;28;20049;-70
2022/10/30 11:04:10;;;;;;;24.67;12.07;;;17.70;99.90;;;;;;5034023;28;20041;-71
2022/10/30 11:06:40;;;;;;;27.95;11.88;;;17.80;99.90;;;;;;5017715;28;20128;-71
2022/10/30 11:09:20;;;;;;;30.73;12.20;;;17.80;99.90;;;;;;5036338;28;20095;-72
2022/10/30 11:11:48;;;;;;;27.45;11.68;;;17.80;99.90;;;;;;5039943;28;20056;-72
2022/10/30 11:14:23;;;;;;;25.75;11.32;;;17.80;99.90;;;;;;5038740;28;20053;-76
2022/10/30 11:16:55;;;;;;;30.98;12.38;;;17.90;99.90;;;;;;5040027;28;20049;-72
2022/10/30 11:19:21;;;;;;;28.27;12.23;;;17.90;99.90;;;;;;5036805;28;20041;-71
2022/10/30 11:21:53;;;;;;;33.43;11.17;;;18.00;99.90;;;;;;5037887;28;20055;-72
2022/10/30 11:24:31;;;;;;;25.55;11.93;;;18.10;99.90;;;;;;5040400;28;20057;-71
2022/10/30 11:27:18;;;;;;;31.13;11.63;;;18.20;99.90;;;;;;5037773;28;20045;-73
2022/10/30 11:29:56;;;;;;;29.50;11.05;;;18.20;99.90;;;;;;5027089;28;20093;-73
2022/10/30 11:32:26;;;;;;;24.92;10.88;;;18.30;99.90;;;;;;5037689;28;20064;-72
2022/10/30 11:35:01;;;;;;;24.77;10.90;;;18.30;99.90;;;;;;5076480;28;20061;-71
2022/10/30 11:37:33;;;;;;;25.00;10.13;;;18.40;99.90;;;;;;5078345;28;20053;-72
2022/10/30 11:40:22;;;;;;;26.85;9.68;;;18.40;99.90;;;;;;5076457;28;20049;-72
2022/10/30 11:43:01;;;;;;;25.95;9.63;;;18.50;99.90;;;;;;5066590;28;20342;-71
2022/10/30 11:45:47;;;;;;;24.52;10.40;;;18.50;99.90;;;;;;5077274;28;20132;-71
2022/10/30 11:48:29;;;;;;;26.52;9.73;;;18.50;99.90;;;;;;5075333;28;20044;-72
2022/10/30 11:51:00;;;;;;;23.98;9.63;;;18.60;99.90;;;;;;5075467;28;20063;-71
2022/10/30 11:53:33;;;;;;;23.30;9.90;;;18.60;99.90;;;;;;5074941;28;20044;-72
2022/10/30 11:56:02;;;;;;;23.50;9.45;;;18.70;99.90;;;;;;5058618;28;20531;-73
2022/10/30 11:58:33;;;;;;;22.88;9.68;;;18.70;99.90;;;;;;5073610;28;20486;-71
2022/10/30 12:01:20;;;;;;;22.20;9.40;;;18.80;99.90;;;;;;5073595;28;20048;-71
2022/10/30 12:03:46;;;;;;;27.10;10.00;;;18.90;99.90;;;;;;5073813;28;20048;-73
2022/10/30 12:06:24;;;;;;;18.17;8.47;;;18.90;99.90;;;;;;5072697;28;20052;-72
2022/10/30 12:09:10;;;;;;;26.13;9.40;;;19.00;99.90;;;;;;5073351;28;20045;-71
2022/10/30 12:11:37;;;;;;;26.05;9.45;;;19.20;99.90;;;;;;5074584;28;20092;-71
2022/10/30 12:14:03;;;;;;;22.65;8.55;;;19.20;99.90;;;;;;5073091;28;20055;-72
2022/10/30 12:16:31;;;;;;;25.58;9.35;;;19.30;99.90;;;;;;5072891;28;20056;-71
2022/10/30 12:19:03;;;;;;;23.95;8.40;;;19.30;99.90;;;;;;5074979;28;20133;-72
2022/10/30 12:21:42;;;;;;;23.67;10.05;;;19.40;99.90;;;;;;5040661;28;20048;-71
2022/10/30 12:24:26;;;;;;;22.65;9.23;;;19.30;99.90;;;;;;5075386;28;20175;-71
2022/10/30 12:26:54;;;;;;;30.20;10.40;;;19.30;99.90;;;;;;5076809;28;20056;-72
2022/10/30 12:29:25;;;;;;;20.23;9.65;;;19.40;99.90;;;;;;5074969;28;20041;-71
2022/10/30 12:31:59;;;;;;;25.08;9.73;;;19.50;99.90;;;;;;5075136;28;20137;-73
2022/10/30 12:35:00;;;;;;;24.33;10.27;;;19.30;99.90;;;;;;5074216;28;20053;-72
2022/10/30 12:37:38;;;;;;;26.45;9.95;;;19.40;99.90;;;;;;5055320;28;20060;-73
2022/10/30 12:40:16;;;;;;;25.30;10.23;;;19.40;99.90;;;;;;5074568;28;20145;-72
2022/10/30 12:43:13;;;;;;;27.15;10.45;;;19.50;99.90;;;;;;5058165;28;20079;-72
2022/10/30 12:45:45;;;;;;;22.90;10.18;;;19.60;99.90;;;;;;5074336;28;20055;-72